Flight Track Log - Related Links

Times and Time Zones

All times are in EDT time to prevent confusion due to time zone crossing. See the N321DD flight status page for this flight to view local times or setup timezone preferences in your user account.


Time Position Orientation Groundspeed Altitude Reporting Facility
EDT Latitude Longitude Course Direction KTS MPH feet Rate Location/Type
Thu 06:35:40 PM 26.0747 -80.1436 51° Northeast 122 140 700  Level Miami Center
Thu 06:36:17 PM 26.0878 -80.1256 51° Northeast 121 139 1,400 1,041 Climbing Miami Center
Thu 06:37:18 PM 26.1175 -80.1008 37° Northeast 149 171 2,400 884 Climbing Miami Center
Thu 06:38:26 PM 26.1653 -80.1161 344° North 159 183 3,300 744 Climbing Miami Center
Thu 06:39:27 PM 26.2067 -80.1356 337° Northwest 160 184 4,000 776 Climbing Miami Center
Thu 06:40:22 PM 26.2181 -80.1800 286° West 159 183 4,800 931 Climbing Miami Center
Thu 06:41:23 PM 26.2233 -80.2289 277° West 152 175 5,800 639 Climbing Miami Center
Thu 06:42:24 PM 26.2261 -80.2797 273° West 185 213 6,100 244 Climbing Miami Center
Thu 06:43:26 PM 26.2331 -80.3403 277° West 190 219 6,300 585 Climbing Miami Center
Thu 06:44:27 PM 26.2383 -80.3914 277° West 160 184 7,300 843 Climbing Miami Center
Thu 06:45:27 PM 26.2475 -80.4333 284° West 159 183 8,000 400 Climbing Miami Center
Thu 06:46:27 PM 26.2525 -80.4936 275° West 178 205 8,100 50 Climbing Miami Center
Thu 06:47:27 PM 26.2594 -80.5494 278° West 183 211 8,100  Level Miami Center
Thu 06:48:27 PM 26.2683 -80.6075 280° West 183 211 8,100 -50 Level Miami Center
Thu 06:49:27 PM 26.3006 -80.6525 309° West 177 204 8,000  Descending Miami Center
Thu 06:50:27 PM 26.3289 -80.6931 308° West 182 209 8,100 50 Climbing Miami Center
Thu 06:51:27 PM 26.3650 -80.7406 310° West 182 209 8,100 -50 Level Miami Center
Thu 06:52:27 PM 26.3931 -80.7831 306° West 187 215 8,000  Descending Miami Center
Thu 06:53:27 PM 26.4294 -80.8308 310° West 187 215 8,100 50 Climbing Miami Center
Thu 06:54:27 PM 26.4575 -80.8733 306° West 187 215 8,100  Level Miami Center
Thu 06:55:27 PM 26.4917 -80.9186 310° West 187 215 8,100  Level Miami Center
Thu 06:56:27 PM 26.5261 -80.9639 310° West 194 223 8,100  Level Miami Center
Thu 06:57:27 PM 26.5581 -81.0092 308° West 183 211 8,100 -50 Level Miami Center
Thu 06:58:27 PM 26.5883 -81.0497 310° West 183 211 8,000 -50 Descending Miami Center
Thu 06:59:27 PM 26.6142 -81.0903 305° West 183 211 8,000  Level Miami Center
Thu 07:00:27 PM 26.6464 -81.1331 310° West 183 211 8,000  Level Miami Center
Thu 07:01:27 PM 26.6806 -81.1786 310° West 177 204 8,000  Level Miami Center
Thu 07:02:27 PM 26.7106 -81.2214 308° West 182 209 8,000  Level Miami Center
Thu 07:03:27 PM 26.7428 -81.2669 308° West 182 209 8,000  Level Miami Center
Thu 07:04:27 PM 26.7708 -81.3050 310° West 182 209 8,000  Level Miami Center
Thu 07:05:27 PM 26.8028 -81.3528 307° West 177 204 8,000  Level Miami Center
Thu 07:06:27 PM 26.8347 -81.3936 311° West 177 204 8,000  Level Miami Center
Thu 07:07:27 PM 26.8689 -81.4369 311° West 182 209 8,000  Level Miami Center
Thu 07:08:27 PM 26.8992 -81.4731 313° West 187 215 8,000  Level Miami Center
Thu 07:09:27 PM 26.9333 -81.5139 313° West 187 215 8,000  Level Miami Center
Thu 07:10:27 PM 26.9717 -81.5575 315° West 182 209 8,000  Level Miami Center
Thu 07:11:27 PM 27.0100 -81.5986 316° Northwest 177 204 8,000  Level Miami Center
Thu 07:12:27 PM 27.0444 -81.6303 321° Northwest 177 204 8,000  Level Miami Center
Thu 07:13:27 PM 27.0850 -81.6647 323° Northwest 183 211 8,000  Level Miami Center
Thu 07:14:27 PM 27.1256 -81.6989 323° Northwest 183 211 8,000  Level Miami Center
Thu 07:15:27 PM 27.1661 -81.7356 321° Northwest 183 211 8,000  Level Miami Center
Thu 07:16:27 PM 27.2044 -81.7700 321° Northwest 183 211 8,000 -100 Level Miami Center
Thu 07:17:27 PM 27.2450 -81.8089 320° Northwest 183 211 7,800 -450 Descending Miami Center
Thu 07:18:27 PM 27.2894 -81.8531 319° Northwest 193 222 7,100 -550 Descending Miami Center
Thu 07:19:27 PM 27.3361 -81.8922 323° Northwest 200 230 6,700 -450 Descending Miami Center
Thu 07:20:27 PM 27.3786 -81.9317 321° Northwest 200 230 6,200 -500 Descending Miami Center
Thu 07:21:27 PM 27.4208 -81.9756 317° Northwest 200 230 5,700 -700 Descending Miami Center
Thu 07:22:27 PM 27.4586 -82.0239 311° West 200 230 4,800 -750 Descending Miami Center
Thu 07:23:27 PM 27.4881 -82.0792 301° West 206 237 4,200 -500 Descending Miami Center
Thu 07:24:27 PM 27.5089 -82.1364 292° West 206 237 3,800 -500 Descending Miami Center
Thu 07:25:27 PM 27.5236 -82.1908 287° West 195 224 3,200 -400 Descending Miami Center
Thu 07:26:27 PM 27.5467 -82.2433 296° West 176 203 3,000 -100 Descending Miami Center
Thu 07:27:27 PM 27.5678 -82.2911 297° West 167 192 3,000  Level Miami Center
Thu 07:28:27 PM 27.6153 -82.3053 345° North 167 192 3,000  Level Miami Center
Thu 07:29:41 PM 27.6833 -82.3167 352° North 165 190 3,000 -47 Level Tampa TRACON
Thu 07:30:35 PM 27.7167 -82.3333 336° Northwest 165 190 2,900 -111 Descending Tampa TRACON

Login

Don't have an account? Register now (free) for customized features, flight alerts, and more!